sensor_id;sensor_type;location;lat;lon;timestamp;temperature;humidity
37446;DHT22;23307;51.136;14.942;2023-10-19T00:01:53;7.10;99.90
37446;DHT22;23307;51.136;14.942;2023-10-19T00:04:19;7.10;99.90
37446;DHT22;23307;51.136;14.942;2023-10-19T00:06:48;7.10;99.90
37446;DHT22;23307;51.136;14.942;2023-10-19T00:09:14;7.10;99.90
37446;DHT22;23307;51.136;14.942;2023-10-19T00:11:41;7.10;99.90
37446;DHT22;23307;51.136;14.942;2023-10-19T00:14:06;7.10;99.90
37446;DHT22;23307;51.136;14.942;2023-10-19T00:16:42;7.10;99.90
37446;DHT22;23307;51.136;14.942;2023-10-19T00:19:10;7.10;99.90
37446;DHT22;23307;51.136;14.942;2023-10-19T00:21:36;7.00;99.90
37446;DHT22;23307;51.136;14.942;2023-10-19T00:24:17;7.00;99.90
37446;DHT22;23307;51.136;14.942;2023-10-19T00:26:43;7.00;99.90
37446;DHT22;23307;51.136;14.942;2023-10-19T00:29:09;7.00;99.90
37446;DHT22;23307;51.136;14.942;2023-10-19T00:32:04;7.00;99.90
37446;DHT22;23307;51.136;14.942;2023-10-19T00:34:31;7.00;99.90
37446;DHT22;23307;51.136;14.942;2023-10-19T00:36:57;7.00;99.90
37446;DHT22;23307;51.136;14.942;2023-10-19T00:39:26;7.00;99.90
37446;DHT22;23307;51.136;14.942;2023-10-19T00:41:53;7.00;99.90
37446;DHT22;23307;51.136;14.942;2023-10-19T00:44:23;7.00;99.90
37446;DHT22;23307;51.136;14.942;2023-10-19T00:47:03;7.00;99.90
37446;DHT22;23307;51.136;14.942;2023-10-19T00:49:30;6.90;99.90
37446;DHT22;23307;51.136;14.942;2023-10-19T00:51:58;6.90;99.90
37446;DHT22;23307;51.136;14.942;2023-10-19T00:54:33;6.90;99.90
37446;DHT22;23307;51.136;14.942;2023-10-19T00:57:06;6.90;99.90
37446;DHT22;23307;51.136;14.942;2023-10-19T00:59:33;6.80;99.90
37446;DHT22;23307;51.136;14.942;2023-10-19T01:02:03;6.80;99.90
37446;DHT22;23307;51.136;14.942;2023-10-19T01:04:43;6.80;99.90
37446;DHT22;23307;51.136;14.942;2023-10-19T01:07:10;6.80;99.90
37446;DHT22;23307;51.136;14.942;2023-10-19T01:09:48;6.90;99.90
37446;DHT22;23307;51.136;14.942;2023-10-19T01:12:17;6.80;99.90
37446;DHT22;23307;51.136;14.942;2023-10-19T01:15:01;6.80;99.90
37446;DHT22;23307;51.136;14.942;2023-10-19T01:17:31;6.80;99.90
37446;DHT22;23307;51.136;14.942;2023-10-19T01:19:59;6.90;99.90
37446;DHT22;23307;51.136;14.942;2023-10-19T01:22:25;6.90;99.90
37446;DHT22;23307;51.136;14.942;2023-10-19T01:24:52;6.90;99.90
37446;DHT22;23307;51.136;14.942;2023-10-19T01:27:24;6.90;99.90
37446;DHT22;23307;51.136;14.942;2023-10-19T01:29:50;6.90;99.90
37446;DHT22;23307;51.136;14.942;2023-10-19T01:32:29;6.90;99.90
37446;DHT22;23307;51.136;14.942;2023-10-19T01:34:54;6.90;99.90
37446;DHT22;23307;51.136;14.942;2023-10-19T01:37:20;6.90;99.90
37446;DHT22;23307;51.136;14.942;2023-10-19T01:39:45;6.90;99.90
37446;DHT22;23307;51.136;14.942;2023-10-19T01:42:11;6.90;99.90
37446;DHT22;23307;51.136;14.942;2023-10-19T01:44:37;6.90;99.90
37446;DHT22;23307;51.136;14.942;2023-10-19T01:47:03;7.00;99.90
37446;DHT22;23307;51.136;14.942;2023-10-19T01:49:31;7.00;99.90
37446;DHT22;23307;51.136;14.942;2023-10-19T01:51:56;6.90;99.90
37446;DHT22;23307;51.136;14.942;2023-10-19T01:54:22;6.90;99.90
37446;DHT22;23307;51.136;14.942;2023-10-19T01:56:54;6.90;99.90
37446;DHT22;23307;51.136;14.942;2023-10-19T01:59:23;6.90;99.90
37446;DHT22;23307;51.136;14.942;2023-10-19T02:01:55;6.90;99.90
37446;DHT22;23307;51.136;14.942;2023-10-19T02:04:23;6.90;99.90
37446;DHT22;23307;51.136;14.942;2023-10-19T02:06:49;6.90;99.90
37446;DHT22;23307;51.136;14.942;2023-10-19T02:09:17;7.00;99.90
37446;DHT22;23307;51.136;14.942;2023-10-19T02:11:50;7.00;99.90
37446;DHT22;23307;51.136;14.942;2023-10-19T02:14:19;7.00;99.90
37446;DHT22;23307;51.136;14.942;2023-10-19T02:16:49;6.90;99.90
37446;DHT22;23307;51.136;14.942;2023-10-19T02:19:19;7.00;99.90
37446;DHT22;23307;51.136;14.942;2023-10-19T02:22:01;7.00;99.90
37446;DHT22;23307;51.136;14.942;2023-10-19T02:24:33;7.00;99.90
37446;DHT22;23307;51.136;14.942;2023-10-19T02:26:59;7.10;99.90
37446;DHT22;23307;51.136;14.942;2023-10-19T02:29:26;7.10;99.90
37446;DHT22;23307;51.136;14.942;2023-10-19T02:31:52;7.20;99.90
37446;DHT22;23307;51.136;14.942;2023-10-19T02:34:19;7.20;99.90
37446;DHT22;23307;51.136;14.942;2023-10-19T02:36:46;7.20;99.90
37446;DHT22;23307;51.136;14.942;2023-10-19T02:39:14;7.20;99.90
37446;DHT22;23307;51.136;14.942;2023-10-19T02:41:42;7.20;99.90
37446;DHT22;23307;51.136;14.942;2023-10-19T02:44:13;7.20;99.90
37446;DHT22;23307;51.136;14.942;2023-10-19T02:46:42;7.20;99.90
37446;DHT22;23307;51.136;14.942;2023-10-19T02:49:09;7.20;99.90
37446;DHT22;23307;51.136;14.942;2023-10-19T02:51:39;7.30;99.90
37446;DHT22;23307;51.136;14.942;2023-10-19T02:54:07;7.30;99.90
37446;DHT22;23307;51.136;14.942;2023-10-19T02:56:33;7.20;99.90
37446;DHT22;23307;51.136;14.942;2023-10-19T02:59:01;7.30;99.90
37446;DHT22;23307;51.136;14.942;2023-10-19T03:01:30;7.30;99.90
37446;DHT22;23307;51.136;14.942;2023-10-19T03:04:00;7.30;99.90
37446;DHT22;23307;51.136;14.942;2023-10-19T03:06:27;7.30;99.90
37446;DHT22;23307;51.136;14.942;2023-10-19T03:09:00;7.40;99.90
37446;DHT22;23307;51.136;14.942;2023-10-19T03:11:42;7.40;99.90
37446;DHT22;23307;51.136;14.942;2023-10-19T03:14:09;7.40;99.90
37446;DHT22;23307;51.136;14.942;2023-10-19T03:16:38;7.40;99.90
37446;DHT22;23307;51.136;14.942;2023-10-19T03:19:07;7.40;99.90
37446;DHT22;23307;51.136;14.942;2023-10-19T03:21:33;7.50;99.90
37446;DHT22;23307;51.136;14.942;2023-10-19T03:24:07;7.50;99.90
37446;DHT22;23307;51.136;14.942;2023-10-19T03:26:37;7.40;99.90
37446;DHT22;23307;51.136;14.942;2023-10-19T03:29:05;7.40;99.90
37446;DHT22;23307;51.136;14.942;2023-10-19T03:31:37;7.50;99.90
37446;DHT22;23307;51.136;14.942;2023-10-19T03:34:11;7.50;99.90
37446;DHT22;23307;51.136;14.942;2023-10-19T03:36:43;7.60;99.90
37446;DHT22;23307;51.136;14.942;2023-10-19T03:39:10;7.60;99.90
37446;DHT22;23307;51.136;14.942;2023-10-19T03:41:41;7.60;99.90
37446;DHT22;23307;51.136;14.942;2023-10-19T03:44:08;7.70;99.90
37446;DHT22;23307;51.136;14.942;2023-10-19T03:46:39;7.70;99.90
37446;DHT22;23307;51.136;14.942;2023-10-19T03:49:21;7.70;99.90
37446;DHT22;23307;51.136;14.942;2023-10-19T03:51:47;7.80;99.90
37446;DHT22;23307;51.136;14.942;2023-10-19T03:54:46;7.80;99.90
37446;DHT22;23307;51.136;14.942;2023-10-19T03:57:15;7.90;99.90
37446;DHT22;23307;51.136;14.942;2023-10-19T03:59:45;7.90;99.90
37446;DHT22;23307;51.136;14.942;2023-10-19T04:02:11;7.90;99.90
37446;DHT22;23307;51.136;14.942;2023-10-19T04:04:42;7.90;99.90
37446;DHT22;23307;51.136;14.942;2023-10-19T04:07:15;8.00;99.90
37446;DHT22;23307;51.136;14.942;2023-10-19T04:09:54;8.20;99.90
37446;DHT22;23307;51.136;14.942;2023-10-19T04:12:33;8.40;99.90
37446;DHT22;23307;51.136;14.942;2023-10-19T04:15:01;8.60;99.90
37446;DHT22;23307;51.136;14.942;2023-10-19T04:17:37;8.80;99.90
37446;DHT22;23307;51.136;14.942;2023-10-19T04:20:05;9.00;99.90
37446;DHT22;23307;51.136;14.942;2023-10-19T04:22:54;9.10;99.90
37446;DHT22;23307;51.136;14.942;2023-10-19T04:25:19;9.20;99.90
37446;DHT22;23307;51.136;14.942;2023-10-19T04:27:47;9.30;99.90
37446;DHT22;23307;51.136;14.942;2023-10-19T04:30:13;9.40;99.90
37446;DHT22;23307;51.136;14.942;2023-10-19T04:32:49;9.40;99.90
37446;DHT22;23307;51.136;14.942;2023-10-19T04:35:16;9.50;99.90
37446;DHT22;23307;51.136;14.942;2023-10-19T04:37:54;9.60;99.90
37446;DHT22;23307;51.136;14.942;2023-10-19T04:40:21;9.60;99.90
37446;DHT22;23307;51.136;14.942;2023-10-19T04:42:47;9.60;99.90
37446;DHT22;23307;51.136;14.942;2023-10-19T04:45:13;9.60;99.90
37446;DHT22;23307;51.136;14.942;2023-10-19T04:47:39;9.70;99.90
37446;DHT22;23307;51.136;14.942;2023-10-19T04:50:05;9.60;99.90
37446;DHT22;23307;51.136;14.942;2023-10-19T04:52:31;9.60;99.90
37446;DHT22;23307;51.136;14.942;2023-10-19T04:54:58;9.60;99.90
37446;DHT22;23307;51.136;14.942;2023-10-19T04:57:23;9.50;99.90
37446;DHT22;23307;51.136;14.942;2023-10-19T04:59:49;9.40;99.90
37446;DHT22;23307;51.136;14.942;2023-10-19T05:02:15;9.40;99.90
37446;DHT22;23307;51.136;14.942;2023-10-19T05:04:41;9.40;99.90
37446;DHT22;23307;51.136;14.942;2023-10-19T05:07:07;9.50;99.90
37446;DHT22;23307;51.136;14.942;2023-10-19T05:09:37;9.50;99.90
37446;DHT22;23307;51.136;14.942;2023-10-19T05:12:05;9.50;99.90
37446;DHT22;23307;51.136;14.942;2023-10-19T05:14:34;9.50;99.90
37446;DHT22;23307;51.136;14.942;2023-10-19T05:17:04;9.50;99.90
37446;DHT22;23307;51.136;14.942;2023-10-19T05:19:33;9.50;99.90
37446;DHT22;23307;51.136;14.942;2023-10-19T05:22:00;9.50;99.90
37446;DHT22;23307;51.136;14.942;2023-10-19T05:24:26;9.50;99.90
37446;DHT22;23307;51.136;14.942;2023-10-19T05:26:53;9.40;99.90
37446;DHT22;23307;51.136;14.942;2023-10-19T05:29:22;9.40;99.90
37446;DHT22;23307;51.136;14.942;2023-10-19T05:31:50;9.40;99.90
37446;DHT22;23307;51.136;14.942;2023-10-19T05:34:22;9.40;99.90
37446;DHT22;23307;51.136;14.942;2023-10-19T05:36:48;9.40;99.90
37446;DHT22;23307;51.136;14.942;2023-10-19T05:39:17;9.30;99.90
37446;DHT22;23307;51.136;14.942;2023-10-19T05:41:43;9.30;99.90
37446;DHT22;23307;51.136;14.942;2023-10-19T05:44:08;9.20;99.90
37446;DHT22;23307;51.136;14.942;2023-10-19T05:46:34;9.20;99.90
37446;DHT22;23307;51.136;14.942;2023-10-19T05:49:00;9.20;99.90
37446;DHT22;23307;51.136;14.942;2023-10-19T05:51:29;9.20;99.90
37446;DHT22;23307;51.136;14.942;2023-10-19T05:53:54;9.10;99.90
37446;DHT22;23307;51.136;14.942;2023-10-19T05:56:27;9.10;99.90
37446;DHT22;23307;51.136;14.942;2023-10-19T05:58:52;9.10;99.90
37446;DHT22;23307;51.136;14.942;2023-10-19T06:01:19;9.20;99.90
37446;DHT22;23307;51.136;14.942;2023-10-19T06:03:45;9.20;99.90
37446;DHT22;23307;51.136;14.942;2023-10-19T06:06:11;9.20;99.90
37446;DHT22;23307;51.136;14.942;2023-10-19T06:08:36;9.20;99.90
37446;DHT22;23307;51.136;14.942;2023-10-19T06:11:02;9.20;99.90
37446;DHT22;23307;51.136;14.942;2023-10-19T06:13:28;9.20;99.90
37446;DHT22;23307;51.136;14.942;2023-10-19T06:15:55;9.20;99.90
37446;DHT22;23307;51.136;14.942;2023-10-19T06:18:20;9.30;99.90
37446;DHT22;23307;51.136;14.942;2023-10-19T06:20:46;9.30;99.90
37446;DHT22;23307;51.136;14.942;2023-10-19T06:23:12;9.30;99.90
37446;DHT22;23307;51.136;14.942;2023-10-19T06:25:38;9.40;99.90
37446;DHT22;23307;51.136;14.942;2023-10-19T06:28:04;9.40;99.90
37446;DHT22;23307;51.136;14.942;2023-10-19T06:30:31;9.50;99.90
37446;DHT22;23307;51.136;14.942;2023-10-19T06:32:58;9.50;99.90
37446;DHT22;23307;51.136;14.942;2023-10-19T06:35:26;9.50;99.90
37446;DHT22;23307;51.136;14.942;2023-10-19T06:37:55;9.50;99.90
37446;DHT22;23307;51.136;14.942;2023-10-19T06:40:21;9.50;99.90
37446;DHT22;23307;51.136;14.942;2023-10-19T06:42:48;9.50;99.90
37446;DHT22;23307;51.136;14.942;2023-10-19T06:45:18;9.50;99.90
37446;DHT22;23307;51.136;14.942;2023-10-19T06:47:45;9.50;99.90
37446;DHT22;23307;51.136;14.942;2023-10-19T06:50:16;9.40;99.90
37446;DHT22;23307;51.136;14.942;2023-10-19T06:52:43;9.40;99.90
37446;DHT22;23307;51.136;14.942;2023-10-19T06:55:10;9.40;99.90
37446;DHT22;23307;51.136;14.942;2023-10-19T06:57:42;9.50;99.90
37446;DHT22;23307;51.136;14.942;2023-10-19T07:00:10;9.50;99.90
37446;DHT22;23307;51.136;14.942;2023-10-19T07:02:40;9.50;99.90
37446;DHT22;23307;51.136;14.942;2023-10-19T07:05:07;9.40;99.90
37446;DHT22;23307;51.136;14.942;2023-10-19T07:07:36;9.40;99.90
37446;DHT22;23307;51.136;14.942;2023-10-19T07:10:03;9.30;99.90
37446;DHT22;23307;51.136;14.942;2023-10-19T07:12:29;9.30;99.90
37446;DHT22;23307;51.136;14.942;2023-10-19T07:14:55;9.20;99.90
37446;DHT22;23307;51.136;14.942;2023-10-19T07:17:21;9.30;99.90
37446;DHT22;23307;51.136;14.942;2023-10-19T07:19:48;9.30;99.90
37446;DHT22;23307;51.136;14.942;2023-10-19T07:22:14;9.30;99.90
37446;DHT22;23307;51.136;14.942;2023-10-19T07:24:40;9.30;99.90
37446;DHT22;23307;51.136;14.942;2023-10-19T07:27:07;9.40;99.90
37446;DHT22;23307;51.136;14.942;2023-10-19T07:29:33;9.40;99.90
37446;DHT22;23307;51.136;14.942;2023-10-19T07:32:02;9.50;99.90
37446;DHT22;23307;51.136;14.942;2023-10-19T07:34:31;9.50;99.90
37446;DHT22;23307;51.136;14.942;2023-10-19T07:36:58;9.60;99.90
37446;DHT22;23307;51.136;14.942;2023-10-19T07:39:26;9.60;99.90
37446;DHT22;23307;51.136;14.942;2023-10-19T07:41:55;9.60;99.90
37446;DHT22;23307;51.136;14.942;2023-10-19T07:44:20;9.60;99.90
37446;DHT22;23307;51.136;14.942;2023-10-19T07:46:46;9.70;99.90
37446;DHT22;23307;51.136;14.942;2023-10-19T07:49:12;9.70;99.90
37446;DHT22;23307;51.136;14.942;2023-10-19T07:51:44;9.70;99.90
37446;DHT22;23307;51.136;14.942;2023-10-19T07:54:11;9.70;99.90
37446;DHT22;23307;51.136;14.942;2023-10-19T07:56:37;9.70;99.90
37446;DHT22;23307;51.136;14.942;2023-10-19T07:59:03;9.70;99.90
37446;DHT22;23307;51.136;14.942;2023-10-19T08:01:29;9.70;99.90
37446;DHT22;23307;51.136;14.942;2023-10-19T08:03:54;9.70;99.90
37446;DHT22;23307;51.136;14.942;2023-10-19T08:06:20;9.70;99.90
37446;DHT22;23307;51.136;14.942;2023-10-19T08:08:45;9.70;99.90
37446;DHT22;23307;51.136;14.942;2023-10-19T08:11:11;9.70;99.90
37446;DHT22;23307;51.136;14.942;2023-10-19T08:13:38;9.70;99.90
37446;DHT22;23307;51.136;14.942;2023-10-19T08:16:05;9.70;99.90
37446;DHT22;23307;51.136;14.942;2023-10-19T08:18:32;9.70;99.90
37446;DHT22;23307;51.136;14.942;2023-10-19T08:21:01;9.70;99.90
37446;DHT22;23307;51.136;14.942;2023-10-19T08:23:27;9.70;99.90
37446;DHT22;23307;51.136;14.942;2023-10-19T08:25:53;9.70;99.90
37446;DHT22;23307;51.136;14.942;2023-10-19T08:28:19;9.60;99.90
37446;DHT22;23307;51.136;14.942;2023-10-19T08:30:45;9.50;99.90
37446;DHT22;23307;51.136;14.942;2023-10-19T08:33:22;9.40;99.90
37446;DHT22;23307;51.136;14.942;2023-10-19T08:35:48;9.30;99.90
37446;DHT22;23307;51.136;14.942;2023-10-19T08:38:13;9.30;99.90
37446;DHT22;23307;51.136;14.942;2023-10-19T08:40:39;9.30;99.90
37446;DHT22;23307;51.136;14.942;2023-10-19T08:43:05;9.30;99.90
37446;DHT22;23307;51.136;14.942;2023-10-19T08:45:34;9.30;99.90
37446;DHT22;23307;51.136;14.942;2023-10-19T08:48:00;9.30;99.90
37446;DHT22;23307;51.136;14.942;2023-10-19T08:50:29;9.30;99.90
37446;DHT22;23307;51.136;14.942;2023-10-19T08:52:56;9.30;99.90
37446;DHT22;23307;51.136;14.942;2023-10-19T08:55:22;9.30;99.90
37446;DHT22;23307;51.136;14.942;2023-10-19T08:57:49;9.30;99.90
37446;DHT22;23307;51.136;14.942;2023-10-19T09:00:15;9.20;99.90
37446;DHT22;23307;51.136;14.942;2023-10-19T09:02:48;9.20;99.90
37446;DHT22;23307;51.136;14.942;2023-10-19T09:05:14;9.20;99.90
37446;DHT22;23307;51.136;14.942;2023-10-19T09:07:47;9.20;99.90
37446;DHT22;23307;51.136;14.942;2023-10-19T09:10:23;9.10;99.90
37446;DHT22;23307;51.136;14.942;2023-10-19T09:13:05;9.20;99.90
37446;DHT22;23307;51.136;14.942;2023-10-19T09:15:33;9.20;99.90
37446;DHT22;23307;51.136;14.942;2023-10-19T09:18:16;9.20;99.90
37446;DHT22;23307;51.136;14.942;2023-10-19T09:20:47;9.30;99.90
37446;DHT22;23307;51.136;14.942;2023-10-19T09:23:24;9.30;99.90
37446;DHT22;23307;51.136;14.942;2023-10-19T09:25:51;9.30;99.90
37446;DHT22;23307;51.136;14.942;2023-10-19T09:28:21;9.40;99.90
37446;DHT22;23307;51.136;14.942;2023-10-19T09:30:48;9.40;99.90
37446;DHT22;23307;51.136;14.942;2023-10-19T09:33:16;9.40;99.90
37446;DHT22;23307;51.136;14.942;2023-10-19T09:35:47;9.40;99.90
37446;DHT22;23307;51.136;14.942;2023-10-19T09:38:22;9.50;99.90
37446;DHT22;23307;51.136;14.942;2023-10-19T09:40:52;9.50;99.90
37446;DHT22;23307;51.136;14.942;2023-10-19T09:43:35;9.50;99.90
37446;DHT22;23307;51.136;14.942;2023-10-19T09:46:09;9.50;99.90
37446;DHT22;23307;51.136;14.942;2023-10-19T09:48:41;9.60;99.90
37446;DHT22;23307;51.136;14.942;2023-10-19T09:51:08;9.60;99.90
37446;DHT22;23307;51.136;14.942;2023-10-19T09:53:35;9.60;99.90
37446;DHT22;23307;51.136;14.942;2023-10-19T09:56:02;9.60;99.90
37446;DHT22;23307;51.136;14.942;2023-10-19T09:58:45;9.60;99.90
37446;DHT22;23307;51.136;14.942;2023-10-19T10:01:12;9.60;99.90
37446;DHT22;23307;51.136;14.942;2023-10-19T10:03:51;9.70;99.90
37446;DHT22;23307;51.136;14.942;2023-10-19T10:09:21;9.80;99.90
37446;DHT22;23307;51.136;14.942;2023-10-19T10:11:51;9.90;99.90
37446;DHT22;23307;51.136;14.942;2023-10-19T10:14:25;10.00;99.90
37446;DHT22;23307;51.136;14.942;2023-10-19T10:17:04;10.00;99.90
37446;DHT22;23307;51.136;14.942;2023-10-19T10:19:31;10.00;99.90
37446;DHT22;23307;51.136;14.942;2023-10-19T10:22:10;10.10;99.90
37446;DHT22;23307;51.136;14.942;2023-10-19T10:24:42;10.20;99.90
37446;DHT22;23307;51.136;14.942;2023-10-19T10:27:08;10.30;99.90
37446;DHT22;23307;51.136;14.942;2023-10-19T10:29:36;10.40;99.90
37446;DHT22;23307;51.136;14.942;2023-10-19T10:32:02;10.40;99.90
37446;DHT22;23307;51.136;14.942;2023-10-19T10:37:08;10.50;99.90
37446;DHT22;23307;51.136;14.942;2023-10-19T10:39:36;10.60;99.90
37446;DHT22;23307;51.136;14.942;2023-10-19T10:42:06;10.70;99.90
37446;DHT22;23307;51.136;14.942;2023-10-19T10:44:45;10.80;99.90
37446;DHT22;23307;51.136;14.942;2023-10-19T10:47:20;10.80;99.90
37446;DHT22;23307;51.136;14.942;2023-10-19T10:49:55;10.80;99.90
37446;DHT22;23307;51.136;14.942;2023-10-19T10:52:35;10.80;99.90
37446;DHT22;23307;51.136;14.942;2023-10-19T10:55:09;10.80;99.90
37446;DHT22;23307;51.136;14.942;2023-10-19T10:57:38;10.90;99.90
37446;DHT22;23307;51.136;14.942;2023-10-19T11:00:10;10.90;99.90
37446;DHT22;23307;51.136;14.942;2023-10-19T11:02:41;10.90;99.90
37446;DHT22;23307;51.136;14.942;2023-10-19T11:05:15;11.00;99.90
37446;DHT22;23307;51.136;14.942;2023-10-19T11:07:49;11.00;99.90
37446;DHT22;23307;51.136;14.942;2023-10-19T11:10:30;11.00;99.90
37446;DHT22;23307;51.136;14.942;2023-10-19T11:13:03;11.00;99.90
37446;DHT22;23307;51.136;14.942;2023-10-19T11:15:29;10.90;99.90
37446;DHT22;23307;51.136;14.942;2023-10-19T11:17:55;10.90;99.90
37446;DHT22;23307;51.136;14.942;2023-10-19T11:20:22;11.00;99.90
37446;DHT22;23307;51.136;14.942;2023-10-19T11:22:49;11.00;99.90
37446;DHT22;23307;51.136;14.942;2023-10-19T11:25:26;11.10;99.90
37446;DHT22;23307;51.136;14.942;2023-10-19T11:27:54;11.20;99.90
37446;DHT22;23307;51.136;14.942;2023-10-19T11:30:28;11.20;99.90
37446;DHT22;23307;51.136;14.942;2023-10-19T11:32:54;11.30;99.90
37446;DHT22;23307;51.136;14.942;2023-10-19T11:35:24;11.40;99.90
37446;DHT22;23307;51.136;14.942;2023-10-19T11:37:55;11.50;99.90
37446;DHT22;23307;51.136;14.942;2023-10-19T11:40:23;11.50;99.90
37446;DHT22;23307;51.136;14.942;2023-10-19T11:42:49;11.50;99.90
37446;DHT22;23307;51.136;14.942;2023-10-19T11:45:16;11.50;99.90
37446;DHT22;23307;51.136;14.942;2023-10-19T11:47:43;11.60;99.90
37446;DHT22;23307;51.136;14.942;2023-10-19T11:50:13;11.50;99.90
37446;DHT22;23307;51.136;14.942;2023-10-19T11:52:41;11.50;99.90
37446;DHT22;23307;51.136;14.942;2023-10-19T11:55:08;11.50;99.90
37446;DHT22;23307;51.136;14.942;2023-10-19T11:57:34;11.50;99.90
37446;DHT22;23307;51.136;14.942;2023-10-19T12:00:00;11.50;99.90
37446;DHT22;23307;51.136;14.942;2023-10-19T12:02:26;11.50;99.90
37446;DHT22;23307;51.136;14.942;2023-10-19T12:04:52;11.50;99.90
37446;DHT22;23307;51.136;14.942;2023-10-19T12:07:18;11.50;99.90
37446;DHT22;23307;51.136;14.942;2023-10-19T12:09:43;11.50;99.90
37446;DHT22;23307;51.136;14.942;2023-10-19T12:12:10;11.50;99.90
37446;DHT22;23307;51.136;14.942;2023-10-19T12:14:37;11.40;99.90
37446;DHT22;23307;51.136;14.942;2023-10-19T12:17:02;11.50;99.90
37446;DHT22;23307;51.136;14.942;2023-10-19T12:19:31;11.50;99.90
37446;DHT22;23307;51.136;14.942;2023-10-19T12:21:57;11.50;99.90
37446;DHT22;23307;51.136;14.942;2023-10-19T12:24:23;11.50;99.90
37446;DHT22;23307;51.136;14.942;2023-10-19T12:26:49;11.50;99.90
37446;DHT22;23307;51.136;14.942;2023-10-19T12:29:16;11.50;99.90
37446;DHT22;23307;51.136;14.942;2023-10-19T12:31:43;11.50;99.90
37446;DHT22;23307;51.136;14.942;2023-10-19T12:34:08;11.50;99.90
37446;DHT22;23307;51.136;14.942;2023-10-19T12:36:37;11.50;99.90
37446;DHT22;23307;51.136;14.942;2023-10-19T12:39:03;11.50;99.90
37446;DHT22;23307;51.136;14.942;2023-10-19T12:41:32;11.50;99.90
37446;DHT22;23307;51.136;14.942;2023-10-19T12:43:58;11.50;99.90
37446;DHT22;23307;51.136;14.942;2023-10-19T12:46:26;11.50;99.90
37446;DHT22;23307;51.136;14.942;2023-10-19T12:48:53;11.50;99.90
37446;DHT22;23307;51.136;14.942;2023-10-19T12:51:21;11.50;99.90
37446;DHT22;23307;51.136;14.942;2023-10-19T12:53:53;11.40;99.90
37446;DHT22;23307;51.136;14.942;2023-10-19T12:56:19;11.50;99.90
37446;DHT22;23307;51.136;14.942;2023-10-19T12:58:45;11.50;99.90
37446;DHT22;23307;51.136;14.942;2023-10-19T13:01:10;11.50;99.90
37446;DHT22;23307;51.136;14.942;2023-10-19T13:03:43;11.50;99.90
37446;DHT22;23307;51.136;14.942;2023-10-19T13:06:13;11.50;99.90
37446;DHT22;23307;51.136;14.942;2023-10-19T13:08:39;11.50;99.90
37446;DHT22;23307;51.136;14.942;2023-10-19T13:11:06;11.40;99.90
37446;DHT22;23307;51.136;14.942;2023-10-19T13:13:32;11.40;99.90
37446;DHT22;23307;51.136;14.942;2023-10-19T13:15:58;11.40;99.90
37446;DHT22;23307;51.136;14.942;2023-10-19T13:18:25;11.40;99.90
37446;DHT22;23307;51.136;14.942;2023-10-19T13:20:53;11.40;99.90
37446;DHT22;23307;51.136;14.942;2023-10-19T13:23:20;11.40;99.90
37446;DHT22;23307;51.136;14.942;2023-10-19T13:25:51;11.40;99.90
37446;DHT22;23307;51.136;14.942;2023-10-19T13:28:23;11.30;99.90
37446;DHT22;23307;51.136;14.942;2023-10-19T13:30:49;11.30;99.90
37446;DHT22;23307;51.136;14.942;2023-10-19T13:33:15;11.40;99.90
37446;DHT22;23307;51.136;14.942;2023-10-19T13:35:43;11.30;99.90
37446;DHT22;23307;51.136;14.942;2023-10-19T13:38:11;11.40;99.90
37446;DHT22;23307;51.136;14.942;2023-10-19T13:40:37;11.40;99.90
37446;DHT22;23307;51.136;14.942;2023-10-19T13:43:04;11.40;99.90
37446;DHT22;23307;51.136;14.942;2023-10-19T13:45:32;11.40;99.90
37446;DHT22;23307;51.136;14.942;2023-10-19T13:47:59;11.40;99.90
37446;DHT22;23307;51.136;14.942;2023-10-19T13:50:25;11.40;99.90
37446;DHT22;23307;51.136;14.942;2023-10-19T13:52:53;11.50;99.90
37446;DHT22;23307;51.136;14.942;2023-10-19T13:55:19;11.50;99.90
37446;DHT22;23307;51.136;14.942;2023-10-19T13:57:46;11.50;99.90
37446;DHT22;23307;51.136;14.942;2023-10-19T14:00:17;11.40;99.90
37446;DHT22;23307;51.136;14.942;2023-10-19T14:02:50;11.50;99.90
37446;DHT22;23307;51.136;14.942;2023-10-19T14:05:16;11.50;99.90
37446;DHT22;23307;51.136;14.942;2023-10-19T14:07:41;11.50;99.90
37446;DHT22;23307;51.136;14.942;2023-10-19T14:10:09;11.50;99.90
37446;DHT22;23307;51.136;14.942;2023-10-19T14:12:38;11.50;99.90
37446;DHT22;23307;51.136;14.942;2023-10-19T14:15:10;11.50;99.90
37446;DHT22;23307;51.136;14.942;2023-10-19T14:17:35;11.50;99.90
37446;DHT22;23307;51.136;14.942;2023-10-19T14:20:01;11.50;99.90
37446;DHT22;23307;51.136;14.942;2023-10-19T14:22:26;11.50;99.90
37446;DHT22;23307;51.136;14.942;2023-10-19T14:24:53;11.50;99.90
37446;DHT22;23307;51.136;14.942;2023-10-19T14:27:18;11.60;99.90
37446;DHT22;23307;51.136;14.942;2023-10-19T14:29:46;11.60;99.90
37446;DHT22;23307;51.136;14.942;2023-10-19T14:32:12;11.60;99.90
37446;DHT22;23307;51.136;14.942;2023-10-19T14:34:37;11.70;99.90
37446;DHT22;23307;51.136;14.942;2023-10-19T14:37:03;11.70;99.90
37446;DHT22;23307;51.136;14.942;2023-10-19T14:39:28;11.80;99.90
37446;DHT22;23307;51.136;14.942;2023-10-19T14:41:54;11.80;99.90
37446;DHT22;23307;51.136;14.942;2023-10-19T14:44:20;11.80;99.90
37446;DHT22;23307;51.136;14.942;2023-10-19T14:46:47;11.70;99.90
37446;DHT22;23307;51.136;14.942;2023-10-19T14:49:12;11.80;99.90
37446;DHT22;23307;51.136;14.942;2023-10-19T14:51:38;11.80;99.90
37446;DHT22;23307;51.136;14.942;2023-10-19T14:54:03;11.80;99.90
37446;DHT22;23307;51.136;14.942;2023-10-19T14:56:29;11.80;99.90
37446;DHT22;23307;51.136;14.942;2023-10-19T14:58:55;11.80;99.90
37446;DHT22;23307;51.136;14.942;2023-10-19T15:01:24;11.80;99.90
37446;DHT22;23307;51.136;14.942;2023-10-19T15:03:51;11.80;99.90
37446;DHT22;23307;51.136;14.942;2023-10-19T15:06:16;11.80;99.90
37446;DHT22;23307;51.136;14.942;2023-10-19T15:08:43;11.80;99.90
37446;DHT22;23307;51.136;14.942;2023-10-19T15:11:09;11.80;99.90
37446;DHT22;23307;51.136;14.942;2023-10-19T15:13:35;11.70;99.90
37446;DHT22;23307;51.136;14.942;2023-10-19T15:16:08;11.70;99.90
37446;DHT22;23307;51.136;14.942;2023-10-19T15:18:34;11.70;99.90
37446;DHT22;23307;51.136;14.942;2023-10-19T15:21:08;11.70;99.90
37446;DHT22;23307;51.136;14.942;2023-10-19T15:23:33;11.80;99.90
37446;DHT22;23307;51.136;14.942;2023-10-19T15:25:59;11.80;99.90
37446;DHT22;23307;51.136;14.942;2023-10-19T15:28:25;11.80;99.90
37446;DHT22;23307;51.136;14.942;2023-10-19T15:30:51;11.80;99.90
37446;DHT22;23307;51.136;14.942;2023-10-19T15:33:16;11.90;99.90
37446;DHT22;23307;51.136;14.942;2023-10-19T15:35:44;11.90;99.90
37446;DHT22;23307;51.136;14.942;2023-10-19T15:38:12;11.90;99.90
37446;DHT22;23307;51.136;14.942;2023-10-19T15:40:38;11.90;99.90